createdAt,value
2022-12-13T00:01:50.451Z,79.83
2022-12-13T00:04:52.849Z,79.87
2022-12-13T00:07:55.096Z,79.79
2022-12-13T00:11:06.820Z,80.97
2022-12-13T00:14:09.343Z,81.07
2022-12-13T00:17:11.612Z,81.57
2022-12-13T00:20:13.605Z,81.49
2022-12-13T00:23:15.737Z,81.93
2022-12-13T00:26:22.486Z,80.96
2022-12-13T00:29:24.553Z,80.95
2022-12-13T00:32:26.737Z,80.31
2022-12-13T00:35:28.889Z,80.24
2022-12-13T00:38:30.937Z,79.81
2022-12-13T00:41:35.527Z,78.44
2022-12-13T00:44:37.663Z,77.40
2022-12-13T00:47:41.009Z,76.82
2022-12-13T00:50:43.152Z,77.19
2022-12-13T00:53:45.287Z,77.77
2022-12-13T00:56:47.722Z,76.57
2022-12-13T00:59:50.886Z,76.67
2022-12-13T01:02:53.934Z,77.04
2022-12-13T01:09:21.850Z,77.85
2022-12-13T01:12:24.147Z,77.76
2022-12-13T01:15:26.249Z,77.80
2022-12-13T01:18:28.381Z,77.60
2022-12-13T01:21:30.461Z,77.00
2022-12-13T01:24:32.916Z,76.60
2022-12-13T01:27:35.057Z,75.97
2022-12-13T01:30:37.190Z,75.81
2022-12-13T01:33:40.651Z,75.19
2022-12-13T01:36:44.731Z,75.03
2022-12-13T01:39:46.799Z,74.65
2022-12-13T01:42:48.924Z,74.11
2022-12-13T01:45:51.023Z,74.67
2022-12-13T01:49:19.301Z,73.87
2022-12-13T01:52:22.901Z,74.18
2022-12-13T01:55:27.817Z,74.13
2022-12-13T01:58:30.697Z,75.10
2022-12-13T02:01:33.205Z,75.09
2022-12-13T02:04:45.184Z,74.13
2022-12-13T02:07:48.927Z,74.25
2022-12-13T02:10:52.409Z,74.98
2022-12-13T02:13:54.776Z,73.64
2022-12-13T02:17:53.361Z,74.14
2022-12-13T02:21:03.626Z,73.19
2022-12-13T02:24:24.401Z,72.21
2022-12-13T02:28:01.010Z,72.29
2022-12-13T02:31:30.261Z,72.28
2022-12-13T02:34:42.272Z,72.41
2022-12-13T02:38:06.219Z,72.14
2022-12-13T02:41:21.159Z,72.33
2022-12-13T02:44:25.632Z,72.37
2022-12-13T02:47:31.655Z,72.56
2022-12-13T02:50:36.039Z,72.98
2022-12-13T02:53:41.260Z,72.68
2022-12-13T02:56:53.085Z,72.65
2022-12-13T02:59:55.295Z,72.23
2022-12-13T03:03:31.379Z,72.97
2022-12-13T03:06:54.616Z,72.02
2022-12-13T03:10:51.638Z,71.91
2022-12-13T03:14:00.452Z,70.83
2022-12-13T03:17:05.743Z,70.55
2022-12-13T03:20:22.515Z,71.29
2022-12-13T03:23:26.392Z,71.00
2022-12-13T03:26:28.806Z,70.50
2022-12-13T03:29:30.920Z,70.59
2022-12-13T03:32:33.264Z,71.11
2022-12-13T03:35:44.913Z,70.65
2022-12-13T03:38:50.703Z,70.91
2022-12-13T03:41:52.905Z,71.76
2022-12-13T03:44:54.914Z,71.12
2022-12-13T03:47:57.035Z,71.96
2022-12-13T03:50:59.252Z,71.67
2022-12-13T03:54:01.378Z,71.15
2022-12-13T03:57:03.772Z,70.74
2022-12-13T04:00:06.711Z,71.44
2022-12-13T04:03:14.750Z,69.73
2022-12-13T04:06:21.795Z,69.25
2022-12-13T04:09:24.347Z,70.09
2022-12-13T04:12:48.384Z,68.76
2022-12-13T04:15:50.760Z,69.44
2022-12-13T04:18:52.886Z,69.51
2022-12-13T04:21:54.973Z,69.37
2022-12-13T04:24:57.013Z,69.66
2022-12-13T04:27:59.191Z,69.29
2022-12-13T04:31:02.159Z,70.74
2022-12-13T04:34:04.193Z,69.76
2022-12-13T04:37:06.860Z,70.79
2022-12-13T04:40:09.470Z,70.80
2022-12-13T04:43:20.579Z,70.95
2022-12-13T04:46:23.280Z,70.25
2022-12-13T04:49:25.387Z,69.85
2022-12-13T04:52:29.299Z,69.01
2022-12-13T04:55:34.209Z,69.05
2022-12-13T04:58:36.247Z,68.61
2022-12-13T05:01:38.369Z,68.91
2022-12-13T05:04:42.693Z,69.04
2022-12-13T05:07:44.874Z,69.17
2022-12-13T05:10:46.861Z,69.52
2022-12-13T05:13:49.038Z,68.77
2022-12-13T05:16:51.247Z,69.32
2022-12-13T05:19:55.630Z,69.44
2022-12-13T05:22:58.859Z,69.24
2022-12-13T05:26:01.196Z,69.87
2022-12-13T05:29:04.182Z,69.75
2022-12-13T05:32:06.488Z,69.38
2022-12-13T05:35:08.889Z,69.19
2022-12-13T05:38:15.447Z,69.21
2022-12-13T05:41:22.376Z,85.29
2022-12-13T05:44:24.558Z,90.93
2022-12-13T05:47:26.645Z,93.13
2022-12-13T05:50:28.782Z,93.66
2022-12-13T05:53:31.267Z,92.57
2022-12-13T05:56:34.301Z,92.62
2022-12-13T05:59:38.434Z,92.30
2022-12-13T06:02:42.192Z,91.60
2022-12-13T06:05:44.755Z,92.45
2022-12-13T06:08:46.817Z,91.64
2022-12-13T06:11:49.736Z,91.51
2022-12-13T06:14:52.116Z,92.07
2022-12-13T06:18:03.461Z,92.35
2022-12-13T06:21:07.168Z,91.49
2022-12-13T06:24:09.494Z,91.26
2022-12-13T06:27:12.053Z,91.52
2022-12-13T06:30:14.247Z,91.76
2022-12-13T06:33:23.398Z,91.49
2022-12-13T06:36:25.697Z,91.33
2022-12-13T06:39:33.183Z,86.79
2022-12-13T06:42:35.570Z,81.82
2022-12-13T06:45:42.275Z,79.89
2022-12-13T06:48:45.757Z,75.70
2022-12-13T06:51:49.309Z,76.67
2022-12-13T06:54:55.486Z,75.13
2022-12-13T06:58:00.666Z,72.65
2022-12-13T07:01:15.012Z,73.34
2022-12-13T07:04:29.629Z,74.28
2022-12-13T07:07:33.008Z,74.39
2022-12-13T07:10:35.329Z,74.30
2022-12-13T07:13:37.804Z,74.46
2022-12-13T07:16:39.862Z,75.62
2022-12-13T07:19:41.874Z,77.69
2022-12-13T07:22:48.511Z,79.92
2022-12-13T07:25:56.034Z,80.14
2022-12-13T07:29:00.135Z,80.32
2022-12-13T07:32:02.351Z,84.20
2022-12-13T07:35:04.574Z,82.13
2022-12-13T07:38:08.356Z,79.10
2022-12-13T07:41:12.250Z,76.20
2022-12-13T07:44:14.502Z,68.53
2022-12-13T07:47:16.567Z,63.42
2022-12-13T07:50:36.850Z,60.01
2022-12-13T07:53:40.564Z,59.30
2022-12-13T07:56:42.838Z,60.59
2022-12-13T07:59:44.994Z,63.04
2022-12-13T08:02:47.310Z,66.18
2022-12-13T08:05:49.440Z,55.85
2022-12-13T08:09:00.693Z,50.35
2022-12-13T08:12:05.518Z,47.68
2022-12-13T08:15:13.790Z,45.96
2022-12-13T08:18:16.334Z,44.47
2022-12-13T08:21:51.762Z,43.17
2022-12-13T08:24:40.827Z,42.28
2022-12-13T08:27:43.230Z,42.09
2022-12-13T08:30:45.917Z,41.70
2022-12-13T08:33:48.867Z,40.98
2022-12-13T08:36:52.506Z,40.61
2022-12-13T08:40:06.509Z,40.66
2022-12-13T08:43:08.570Z,39.80
2022-12-13T08:46:10.705Z,38.96
2022-12-13T08:49:12.866Z,38.62
2022-12-13T08:52:15.211Z,39.11
2022-12-13T08:55:19.996Z,39.57
2022-12-13T08:58:24.501Z,38.63
2022-12-13T09:01:26.501Z,38.48
2022-12-13T09:04:31.225Z,38.17
2022-12-13T09:07:36.390Z,40.44
2022-12-13T09:10:38.918Z,39.87
2022-12-13T09:13:43.290Z,40.53
2022-12-13T09:16:50.755Z,39.76
2022-12-13T09:19:58.457Z,39.46
2022-12-13T09:23:03.540Z,39.22
2022-12-13T09:26:06.345Z,38.87
2022-12-13T09:29:10.700Z,38.93
2022-12-13T09:32:13.774Z,39.24
2022-12-13T09:35:15.980Z,40.12
2022-12-13T09:38:18.673Z,39.45
2022-12-13T09:41:32.450Z,39.91
2022-12-13T09:44:53.650Z,39.46
2022-12-13T09:48:13.498Z,39.89
2022-12-13T09:51:26.177Z,40.18
2022-12-13T09:54:34.443Z,37.37
2022-12-13T09:57:37.257Z,34.38
2022-12-13T10:00:40.968Z,34.79
2022-12-13T10:03:51.925Z,34.50
2022-12-13T10:06:54.899Z,34.94
2022-12-13T10:10:04.028Z,34.06
2022-12-13T10:13:27.686Z,33.89
2022-12-13T10:16:37.127Z,35.39
2022-12-13T10:19:43.435Z,34.20
2022-12-13T10:23:33.320Z,35.26
2022-12-13T10:26:44.674Z,34.51
2022-12-13T10:30:05.935Z,35.16
2022-12-13T10:33:24.397Z,34.82
2022-12-13T10:36:41.589Z,35.20
2022-12-13T10:39:44.931Z,34.77
2022-12-13T10:43:15.508Z,35.01
2022-12-13T10:46:25.151Z,35.08
2022-12-13T10:49:38.146Z,34.80
2022-12-13T10:52:47.227Z,35.18
2022-12-13T10:55:55.776Z,44.67
2022-12-13T10:59:37.524Z,46.45
2022-12-13T11:02:39.934Z,47.95
2022-12-13T11:05:42.498Z,49.56
2022-12-13T11:08:44.756Z,50.47
2022-12-13T11:11:50.408Z,50.01
2022-12-13T11:15:04.704Z,49.79
2022-12-13T11:18:19.818Z,50.53
2022-12-13T11:21:29.563Z,50.20
2022-12-13T11:24:36.328Z,49.26
2022-12-13T11:28:02.522Z,53.33
2022-12-13T11:31:28.610Z,56.62
2022-12-13T11:34:59.654Z,58.82
2022-12-13T11:38:17.917Z,60.30
2022-12-13T11:41:31.395Z,60.32
2022-12-13T11:44:55.956Z,60.61
2022-12-13T11:48:09.987Z,60.55
2022-12-13T11:51:15.860Z,60.43
2022-12-13T11:54:28.377Z,60.30
2022-12-13T11:57:44.541Z,60.20
2022-12-13T12:01:05.167Z,60.81
2022-12-13T12:04:19.641Z,61.06
2022-12-13T12:07:58.533Z,61.30
2022-12-13T12:11:35.864Z,63.52
2022-12-13T12:14:54.299Z,64.90
2022-12-13T12:17:57.012Z,65.08
2022-12-13T12:22:05.017Z,64.82
2022-12-13T12:25:43.991Z,65.25
2022-12-13T12:28:51.726Z,65.40
2022-12-13T12:31:58.232Z,65.35
2022-12-13T12:35:01.625Z,65.29
2022-12-13T12:38:04.115Z,65.62
2022-12-13T12:41:21.283Z,66.31
2022-12-13T12:44:31.338Z,67.16
2022-12-13T12:51:55.846Z,67.26
2022-12-13T12:55:13.492Z,67.55
2022-12-13T12:58:29.432Z,67.74
2022-12-13T13:02:12.933Z,68.39
2022-12-13T13:05:19.111Z,68.32
2022-12-13T13:08:56.610Z,69.30
2022-12-13T13:12:28.398Z,68.52
2022-12-13T13:15:53.330Z,68.54
2022-12-13T13:18:56.570Z,68.21
2022-12-13T13:22:01.483Z,69.32
2022-12-13T13:25:06.946Z,68.92
2022-12-13T13:28:14.886Z,69.59
2022-12-13T13:31:17.212Z,69.36
2022-12-13T13:34:27.430Z,68.91
2022-12-13T13:37:46.753Z,68.80
2022-12-13T13:40:49.869Z,69.79
2022-12-13T13:43:52.016Z,70.24
2022-12-13T13:47:22.482Z,70.87
2022-12-13T13:50:33.475Z,70.21
2022-12-13T13:53:52.765Z,70.44
2022-12-13T13:58:07.095Z,71.18
2022-12-13T14:01:33.629Z,79.42
2022-12-13T14:04:51.702Z,81.13
2022-12-13T14:08:20.775Z,75.88
2022-12-13T14:12:00.322Z,73.54
2022-12-13T14:15:30.739Z,72.64
2022-12-13T14:18:53.606Z,72.29
2022-12-13T14:21:58.418Z,72.43
2022-12-13T14:25:19.067Z,72.45
2022-12-13T14:28:45.901Z,73.12
2022-12-13T14:31:50.122Z,72.24
2022-12-13T14:34:54.307Z,72.42
2022-12-13T14:38:08.150Z,72.52
2022-12-13T14:41:20.044Z,73.59
2022-12-13T14:44:27.872Z,73.42
2022-12-13T14:47:31.029Z,76.33
2022-12-13T14:50:36.720Z,78.40
2022-12-13T14:53:41.935Z,79.41
2022-12-13T14:57:02.395Z,76.21
2022-12-13T15:00:29.199Z,75.63
2022-12-13T15:03:31.582Z,74.21
2022-12-13T15:06:33.652Z,74.30
2022-12-13T15:09:39.546Z,74.29
2022-12-13T15:12:44.326Z,75.26
2022-12-13T15:15:56.372Z,73.77
2022-12-13T15:19:29.970Z,74.69
2022-12-13T15:22:37.973Z,74.56
2022-12-13T15:25:40.908Z,74.59
2022-12-13T15:28:46.648Z,74.38
2022-12-13T15:31:49.371Z,73.89
2022-12-13T15:34:52.044Z,73.81
2022-12-13T15:37:54.103Z,74.62
2022-12-13T15:40:57.077Z,74.10
2022-12-13T15:44:27.902Z,73.78
2022-12-13T15:47:31.675Z,74.35
2022-12-13T15:50:43.843Z,73.70
2022-12-13T15:54:10.491Z,74.00
2022-12-13T15:57:21.816Z,74.20
2022-12-13T16:00:33.596Z,74.48
2022-12-13T16:03:46.989Z,74.75
2022-12-13T16:06:53.357Z,72.85
2022-12-13T16:09:58.189Z,74.01
2022-12-13T16:13:07.873Z,72.68
2022-12-13T16:16:30.568Z,69.75
2022-12-13T16:19:33.017Z,68.66
2022-12-13T16:22:35.072Z,65.47
2022-12-13T16:25:37.245Z,66.09
2022-12-13T16:28:40.603Z,66.23
2022-12-13T16:31:44.361Z,71.48
2022-12-13T16:34:46.552Z,72.31
2022-12-13T16:37:49.255Z,70.87
2022-12-13T16:40:54.738Z,68.37
2022-12-13T16:44:01.872Z,67.43
2022-12-13T16:47:21.933Z,68.17
2022-12-13T16:50:29.180Z,70.87
2022-12-13T16:53:31.805Z,73.00
2022-12-13T16:56:33.890Z,74.09
2022-12-13T16:59:35.905Z,75.62
2022-12-13T17:02:38.493Z,76.89
2022-12-13T17:05:42.954Z,75.70
2022-12-13T17:08:45.134Z,72.18
2022-12-13T17:11:47.433Z,68.49
2022-12-13T17:14:49.682Z,68.61
2022-12-13T17:17:51.806Z,63.99
2022-12-13T17:20:58.359Z,62.80
2022-12-13T17:24:03.157Z,63.29
2022-12-13T17:27:05.472Z,61.57
2022-12-13T17:30:18.187Z,56.65
2022-12-13T17:33:23.156Z,48.79
2022-12-13T17:36:27.007Z,41.37
2022-12-13T17:39:29.275Z,38.03
2022-12-13T17:42:36.201Z,36.37
2022-12-13T17:45:39.189Z,36.13
2022-12-13T17:48:42.035Z,33.70
2022-12-13T17:51:44.122Z,33.04
2022-12-13T17:54:57.159Z,33.30
2022-12-13T17:58:04.540Z,32.67
2022-12-13T18:01:26.830Z,34.15
2022-12-13T18:04:36.382Z,38.39
2022-12-13T18:08:03.382Z,42.97
2022-12-13T18:14:42.442Z,47.84
2022-12-13T18:18:10.777Z,49.59
2022-12-13T18:21:11.109Z,50.63
2022-12-13T18:24:23.194Z,51.44
2022-12-13T18:27:25.343Z,52.38
2022-12-13T18:30:28.293Z,52.80
2022-12-13T18:33:33.474Z,53.15
2022-12-13T18:36:36.413Z,52.75
2022-12-13T18:39:38.758Z,54.29
2022-12-13T18:42:41.025Z,54.98
2022-12-13T18:45:43.357Z,54.51
2022-12-13T18:48:45.833Z,53.87
2022-12-13T18:51:49.173Z,53.80
2022-12-13T18:54:56.599Z,54.58
2022-12-13T18:57:58.630Z,54.21
2022-12-13T19:01:01.201Z,54.11
2022-12-13T19:04:04.450Z,53.71
2022-12-13T19:07:32.296Z,54.33
2022-12-13T19:10:37.663Z,54.20
2022-12-13T19:13:43.280Z,54.35
2022-12-13T19:16:45.346Z,55.05
2022-12-13T19:19:50.398Z,55.22
2022-12-13T19:22:55.391Z,54.33
2022-12-13T19:26:08.287Z,54.89
2022-12-13T19:29:12.575Z,54.32
2022-12-13T19:32:14.799Z,54.86
2022-12-13T19:35:17.363Z,55.26
2022-12-13T19:38:20.102Z,59.24
2022-12-13T19:41:24.201Z,68.05
2022-12-13T19:44:27.720Z,70.63
2022-12-13T19:47:29.963Z,68.03
2022-12-13T19:50:32.222Z,64.75
2022-12-13T19:53:35.654Z,58.00
2022-12-13T19:56:37.828Z,55.29
2022-12-13T19:59:40.932Z,57.21
2022-12-13T20:02:43.416Z,56.36
2022-12-13T20:05:56.357Z,53.97
2022-12-13T20:08:58.587Z,55.92
2022-12-13T20:12:01.078Z,56.31
2022-12-13T20:15:05.268Z,55.75
2022-12-13T20:18:07.355Z,71.62
2022-12-13T20:21:12.840Z,78.75
2022-12-13T20:24:26.692Z,76.89
2022-12-13T20:27:29.053Z,67.97
2022-12-13T20:30:31.167Z,57.56
2022-12-13T20:33:34.694Z,50.25
2022-12-13T20:36:37.392Z,52.66
2022-12-13T20:42:43.295Z,49.47
2022-12-13T20:45:45.473Z,49.20
2022-12-13T20:48:48.874Z,51.01
2022-12-13T20:51:51.030Z,52.69
2022-12-13T20:54:53.123Z,51.23
2022-12-13T20:57:55.393Z,50.66
2022-12-13T21:00:57.956Z,53.18
2022-12-13T21:04:02.105Z,51.18
2022-12-13T21:07:04.648Z,49.74
2022-12-13T21:10:07.432Z,49.76
2022-12-13T21:13:09.969Z,53.10
2022-12-13T21:16:13.171Z,52.53
2022-12-13T21:19:18.145Z,50.67
2022-12-13T21:22:21.932Z,52.52
2022-12-13T21:25:24.932Z,52.72
2022-12-13T21:28:29.477Z,48.99
2022-12-13T21:31:39.451Z,50.39
2022-12-13T21:35:10.902Z,51.18
2022-12-13T21:38:22.801Z,48.37
2022-12-13T21:41:25.625Z,48.69
2022-12-13T21:44:28.672Z,49.94
2022-12-13T21:47:33.519Z,49.00
2022-12-13T21:50:35.961Z,47.63
2022-12-13T21:53:38.540Z,48.51
2022-12-13T21:57:00.178Z,49.51
2022-12-13T22:00:03.800Z,47.59
2022-12-13T22:03:15.523Z,45.58
2022-12-13T22:06:17.671Z,47.65
2022-12-13T22:09:19.921Z,49.10
2022-12-13T22:12:28.074Z,47.13
2022-12-13T22:15:30.180Z,45.83
2022-12-13T22:18:32.306Z,48.64
2022-12-13T22:21:35.435Z,48.15
2022-12-13T22:24:37.592Z,45.85
2022-12-13T22:27:39.661Z,44.96
2022-12-13T22:30:42.367Z,47.43
2022-12-13T22:33:46.664Z,46.21
2022-12-13T22:36:49.040Z,44.81
2022-12-13T22:39:51.308Z,46.11
2022-12-13T22:42:53.940Z,48.59
2022-12-13T22:46:04.215Z,45.57
2022-12-13T22:49:07.461Z,44.70
2022-12-13T22:52:09.701Z,47.97
2022-12-13T22:55:13.151Z,46.74
2022-12-13T22:58:15.305Z,44.61
2022-12-13T23:01:20.899Z,44.60
2022-12-13T23:04:25.021Z,47.26
2022-12-13T23:07:28.236Z,45.37
2022-12-13T23:10:48.786Z,43.88
2022-12-13T23:13:55.516Z,46.98
2022-12-13T23:16:58.640Z,46.22
2022-12-13T23:20:00.914Z,44.15
2022-12-13T23:23:03.106Z,43.83
2022-12-13T23:26:28.602Z,46.70
2022-12-13T23:29:30.849Z,45.28
2022-12-13T23:32:34.189Z,43.74
2022-12-13T23:35:36.227Z,46.19
2022-12-13T23:38:39.472Z,46.35
2022-12-13T23:41:43.089Z,44.63
2022-12-13T23:44:45.296Z,43.24
2022-12-13T23:47:47.523Z,46.28
2022-12-13T23:50:52.016Z,46.83
2022-12-13T23:53:56.542Z,44.34
2022-12-13T23:56:58.786Z,44.05
